Los Indios, Texas
Current Conditions -  °F | °C
As of 9:52 PM on Saturday 25 Oct 2014 (Local Time) from KHRL Reporting Station
Clear Clear  
Wind Chill: 68°   Ceiling: Unl
Heat Index: 68°   Visibility: 10mi
Dew Point: 65°   Wind: 3mph
Humidity: 90%   Direction: 100°E
Pressure: 30.1"   Gusts: NA
Location:  26.05°N, 97.74°W
Report Text: KHRL 260252Z 10003KT 10SM CLR 20/18 A3010 RMK AO2 SLP191 T02000183 50006
Loading
Personal Weather Stations






























Interactive Weather Map
Tropical Storm Tracking
New forecast layout! Learn more

10-Day Weather Forecast

Advertisements
Track Severe Weather on mobile